sensor_id;sensor_type;location;lat;lon;timestamp;pressure;altitude;pressure_sealevel;temperature;humidity
56182;BME280;51963;46.052;14.544;2023-12-20T00:00:56;98294.56;;;-2.30;100.00
56182;BME280;51963;46.052;14.544;2023-12-20T00:03:21;98287.84;;;-2.32;100.00
56182;BME280;51963;46.052;14.544;2023-12-20T00:05:47;98270.81;;;-2.48;100.00
56182;BME280;51963;46.052;14.544;2023-12-20T00:08:13;98276.56;;;-2.44;100.00
56182;BME280;51963;46.052;14.544;2023-12-20T00:10:38;98282.75;;;-2.34;100.00
56182;BME280;51963;46.052;14.544;2023-12-20T00:13:04;98279.38;;;-2.34;100.00
56182;BME280;51963;46.052;14.544;2023-12-20T00:15:30;98269.75;;;-2.45;100.00
56182;BME280;51963;46.052;14.544;2023-12-20T00:17:55;98267.66;;;-2.40;100.00
56182;BME280;51963;46.052;14.544;2023-12-20T00:20:21;98257.94;;;-2.49;100.00
56182;BME280;51963;46.052;14.544;2023-12-20T00:22:47;98262.97;;;-2.59;100.00
56182;BME280;51963;46.052;14.544;2023-12-20T00:25:12;98260.88;;;-2.54;100.00
56182;BME280;51963;46.052;14.544;2023-12-20T00:27:38;98250.19;;;-2.49;100.00
56182;BME280;51963;46.052;14.544;2023-12-20T00:30:04;98251.69;;;-2.34;100.00
56182;BME280;51963;46.052;14.544;2023-12-20T00:32:30;98242.91;;;-2.44;100.00
56182;BME280;51963;46.052;14.544;2023-12-20T00:34:56;98245.13;;;-2.27;100.00
56182;BME280;51963;46.052;14.544;2023-12-20T00:37:21;98217.53;;;-2.39;100.00
56182;BME280;51963;46.052;14.544;2023-12-20T00:39:47;98208.75;;;-2.49;100.00
56182;BME280;51963;46.052;14.544;2023-12-20T00:42:13;98239.25;;;-2.29;100.00
56182;BME280;51963;46.052;14.544;2023-12-20T00:44:39;98240.41;;;-2.33;100.00
56182;BME280;51963;46.052;14.544;2023-12-20T00:47:04;98237.66;;;-2.18;100.00
56182;BME280;51963;46.052;14.544;2023-12-20T00:49:30;98225.06;;;-1.87;100.00
56182;BME280;51963;46.052;14.544;2023-12-20T00:51:55;98226.75;;;-2.11;100.00
56182;BME280;51963;46.052;14.544;2023-12-20T00:54:21;98223.75;;;-2.17;100.00
56182;BME280;51963;46.052;14.544;2023-12-20T00:56:47;98216.94;;;-2.18;100.00
56182;BME280;51963;46.052;14.544;2023-12-20T00:59:12;98221.16;;;-2.17;100.00
56182;BME280;51963;46.052;14.544;2023-12-20T01:01:38;98224.81;;;-2.20;100.00
56182;BME280;51963;46.052;14.544;2023-12-20T01:04:04;98215.69;;;-2.13;100.00
56182;BME280;51963;46.052;14.544;2023-12-20T01:06:29;98218.47;;;-2.16;100.00
56182;BME280;51963;46.052;14.544;2023-12-20T01:08:55;98215.38;;;-1.97;100.00
56182;BME280;51963;46.052;14.544;2023-12-20T01:11:20;98216.97;;;-2.07;100.00
56182;BME280;51963;46.052;14.544;2023-12-20T01:13:46;98211.53;;;-1.91;100.00
56182;BME280;51963;46.052;14.544;2023-12-20T01:16:12;98207.91;;;-1.77;100.00
56182;BME280;51963;46.052;14.544;2023-12-20T01:18:38;98195.06;;;-1.79;100.00
56182;BME280;51963;46.052;14.544;2023-12-20T01:21:04;98195.66;;;-1.75;100.00
56182;BME280;51963;46.052;14.544;2023-12-20T01:23:31;98192.66;;;-1.93;100.00
56182;BME280;51963;46.052;14.544;2023-12-20T01:25:57;98199.16;;;-1.87;100.00
56182;BME280;51963;46.052;14.544;2023-12-20T01:28:25;98186.22;;;-1.76;100.00
56182;BME280;51963;46.052;14.544;2023-12-20T01:30:51;98181.91;;;-2.00;100.00
56182;BME280;51963;46.052;14.544;2023-12-20T01:33:16;98192.59;;;-2.16;100.00
56182;BME280;51963;46.052;14.544;2023-12-20T01:35:42;98180.03;;;-1.98;100.00
56182;BME280;51963;46.052;14.544;2023-12-20T01:38:08;98151.34;;;-2.19;100.00
56182;BME280;51963;46.052;14.544;2023-12-20T01:40:34;98174.91;;;-2.22;100.00
56182;BME280;51963;46.052;14.544;2023-12-20T01:43:18;98167.63;;;-2.17;100.00
56182;BME280;51963;46.052;14.544;2023-12-20T01:45:43;98162.94;;;-2.12;100.00
56182;BME280;51963;46.052;14.544;2023-12-20T01:48:09;98167.72;;;-2.18;100.00
56182;BME280;51963;46.052;14.544;2023-12-20T01:50:36;98156.91;;;-2.12;100.00
56182;BME280;51963;46.052;14.544;2023-12-20T01:53:05;98152.91;;;-2.05;100.00
56182;BME280;51963;46.052;14.544;2023-12-20T01:55:34;98142.09;;;-1.99;100.00
56182;BME280;51963;46.052;14.544;2023-12-20T01:58:01;98144.31;;;-2.17;100.00
56182;BME280;51963;46.052;14.544;2023-12-20T02:00:27;98138.50;;;-2.21;100.00
56182;BME280;51963;46.052;14.544;2023-12-20T02:02:54;98127.66;;;-2.26;100.00
56182;BME280;51963;46.052;14.544;2023-12-20T02:05:23;98124.91;;;-2.00;100.00
56182;BME280;51963;46.052;14.544;2023-12-20T02:07:49;98134.13;;;-1.84;100.00
56182;BME280;51963;46.052;14.544;2023-12-20T02:10:15;98114.00;;;-1.81;100.00
56182;BME280;51963;46.052;14.544;2023-12-20T02:12:41;98105.16;;;-1.89;100.00
56182;BME280;51963;46.052;14.544;2023-12-20T02:15:07;98118.81;;;-1.87;100.00
56182;BME280;51963;46.052;14.544;2023-12-20T02:17:33;98120.41;;;-2.09;100.00
56182;BME280;51963;46.052;14.544;2023-12-20T02:19:59;98108.88;;;-2.05;100.00
56182;BME280;51963;46.052;14.544;2023-12-20T02:22:24;98097.69;;;-2.17;100.00
56182;BME280;51963;46.052;14.544;2023-12-20T02:24:50;98106.06;;;-2.02;100.00
56182;BME280;51963;46.052;14.544;2023-12-20T02:27:17;98078.44;;;-2.26;100.00
56182;BME280;51963;46.052;14.544;2023-12-20T02:29:43;98096.41;;;-2.00;100.00
56182;BME280;51963;46.052;14.544;2023-12-20T02:32:09;98087.16;;;-2.27;100.00
56182;BME280;51963;46.052;14.544;2023-12-20T02:34:34;98096.84;;;-2.53;100.00
56182;BME280;51963;46.052;14.544;2023-12-20T02:37:00;98091.88;;;-2.56;100.00
56182;BME280;51963;46.052;14.544;2023-12-20T02:39:26;98092.13;;;-2.59;100.00
56182;BME280;51963;46.052;14.544;2023-12-20T02:41:52;98092.00;;;-2.58;100.00
56182;BME280;51963;46.052;14.544;2023-12-20T02:44:17;98086.31;;;-2.63;100.00
56182;BME280;51963;46.052;14.544;2023-12-20T02:46:43;98085.16;;;-2.59;100.00
56182;BME280;51963;46.052;14.544;2023-12-20T02:49:09;98081.03;;;-2.26;100.00
56182;BME280;51963;46.052;14.544;2023-12-20T02:51:34;98092.75;;;-2.09;100.00
56182;BME280;51963;46.052;14.544;2023-12-20T02:54:00;98082.50;;;-1.99;100.00
56182;BME280;51963;46.052;14.544;2023-12-20T02:56:25;98073.31;;;-2.03;100.00
56182;BME280;51963;46.052;14.544;2023-12-20T02:58:51;98090.28;;;-1.99;100.00
56182;BME280;51963;46.052;14.544;2023-12-20T03:01:17;98082.03;;;-2.04;100.00
56182;BME280;51963;46.052;14.544;2023-12-20T03:03:42;98069.41;;;-2.20;100.00
56182;BME280;51963;46.052;14.544;2023-12-20T03:06:08;98076.63;;;-2.01;100.00
56182;BME280;51963;46.052;14.544;2023-12-20T03:08:33;98072.56;;;-2.28;100.00
56182;BME280;51963;46.052;14.544;2023-12-20T03:10:59;98078.81;;;-2.55;100.00
56182;BME280;51963;46.052;14.544;2023-12-20T03:13:25;98077.41;;;-2.59;100.00
56182;BME280;51963;46.052;14.544;2023-12-20T03:15:51;98074.84;;;-2.12;100.00
56182;BME280;51963;46.052;14.544;2023-12-20T03:18:16;98064.06;;;-2.30;100.00
56182;BME280;51963;46.052;14.544;2023-12-20T03:20:43;98064.09;;;-2.18;100.00
56182;BME280;51963;46.052;14.544;2023-12-20T03:23:09;98070.59;;;-2.13;100.00
56182;BME280;51963;46.052;14.544;2023-12-20T03:25:35;98067.19;;;-2.13;100.00
56182;BME280;51963;46.052;14.544;2023-12-20T03:28:00;98061.31;;;-2.04;100.00
56182;BME280;51963;46.052;14.544;2023-12-20T03:30:26;98044.22;;;-2.18;100.00
56182;BME280;51963;46.052;14.544;2023-12-20T03:32:52;98071.66;;;-2.04;100.00
56182;BME280;51963;46.052;14.544;2023-12-20T03:35:17;98064.25;;;-2.09;100.00
56182;BME280;51963;46.052;14.544;2023-12-20T03:37:43;98059.69;;;-1.94;100.00
56182;BME280;51963;46.052;14.544;2023-12-20T03:40:09;98038.88;;;-2.28;100.00
56182;BME280;51963;46.052;14.544;2023-12-20T03:42:35;98051.03;;;-2.28;100.00
56182;BME280;51963;46.052;14.544;2023-12-20T03:45:00;98038.16;;;-2.41;100.00
56182;BME280;51963;46.052;14.544;2023-12-20T03:47:26;98061.00;;;-2.35;100.00
56182;BME280;51963;46.052;14.544;2023-12-20T03:49:52;98057.41;;;-2.21;100.00
56182;BME280;51963;46.052;14.544;2023-12-20T03:52:18;98057.69;;;-2.01;100.00
56182;BME280;51963;46.052;14.544;2023-12-20T03:54:44;98046.47;;;-1.90;100.00
56182;BME280;51963;46.052;14.544;2023-12-20T03:57:09;98049.91;;;-1.90;100.00
56182;BME280;51963;46.052;14.544;2023-12-20T03:59:36;98047.16;;;-2.11;100.00
56182;BME280;51963;46.052;14.544;2023-12-20T04:02:02;98051.88;;;-2.05;100.00
56182;BME280;51963;46.052;14.544;2023-12-20T04:04:28;98038.25;;;-2.54;100.00
56182;BME280;51963;46.052;14.544;2023-12-20T04:06:53;98033.91;;;-2.42;100.00
56182;BME280;51963;46.052;14.544;2023-12-20T04:09:19;98032.84;;;-2.51;100.00
56182;BME280;51963;46.052;14.544;2023-12-20T04:11:44;98031.09;;;-2.39;100.00
56182;BME280;51963;46.052;14.544;2023-12-20T04:14:10;98024.75;;;-2.35;100.00
56182;BME280;51963;46.052;14.544;2023-12-20T04:16:35;98031.03;;;-2.26;100.00
56182;BME280;51963;46.052;14.544;2023-12-20T04:19:01;98035.69;;;-2.43;100.00
56182;BME280;51963;46.052;14.544;2023-12-20T04:21:28;98030.09;;;-2.61;100.00
56182;BME280;51963;46.052;14.544;2023-12-20T04:23:53;98024.53;;;-2.68;100.00
56182;BME280;51963;46.052;14.544;2023-12-20T04:26:19;98026.53;;;-2.71;100.00
56182;BME280;51963;46.052;14.544;2023-12-20T04:28:44;98028.97;;;-2.70;100.00
56182;BME280;51963;46.052;14.544;2023-12-20T04:31:10;98025.31;;;-2.78;100.00
56182;BME280;51963;46.052;14.544;2023-12-20T04:33:36;98022.72;;;-2.78;100.00
56182;BME280;51963;46.052;14.544;2023-12-20T04:36:01;98025.63;;;-2.59;100.00
56182;BME280;51963;46.052;14.544;2023-12-20T04:38:27;98027.88;;;-2.54;100.00
56182;BME280;51963;46.052;14.544;2023-12-20T04:40:53;98027.56;;;-2.38;100.00
56182;BME280;51963;46.052;14.544;2023-12-20T04:43:18;98017.56;;;-2.43;100.00
56182;BME280;51963;46.052;14.544;2023-12-20T04:45:44;98020.72;;;-2.51;100.00
56182;BME280;51963;46.052;14.544;2023-12-20T04:48:10;98012.91;;;-2.62;100.00
56182;BME280;51963;46.052;14.544;2023-12-20T04:50:35;98011.75;;;-2.58;100.00
56182;BME280;51963;46.052;14.544;2023-12-20T04:53:01;98009.50;;;-2.62;100.00
56182;BME280;51963;46.052;14.544;2023-12-20T04:55:26;98010.72;;;-2.55;100.00
56182;BME280;51963;46.052;14.544;2023-12-20T04:57:52;97996.03;;;-2.32;100.00
56182;BME280;51963;46.052;14.544;2023-12-20T05:00:18;98001.81;;;-2.40;100.00
56182;BME280;51963;46.052;14.544;2023-12-20T05:02:43;97997.44;;;-2.28;100.00
56182;BME280;51963;46.052;14.544;2023-12-20T05:05:09;97999.47;;;-2.20;100.00
56182;BME280;51963;46.052;14.544;2023-12-20T05:07:35;97994.53;;;-2.23;100.00
56182;BME280;51963;46.052;14.544;2023-12-20T05:10:00;97988.28;;;-2.21;100.00
56182;BME280;51963;46.052;14.544;2023-12-20T05:12:26;97990.41;;;-2.26;100.00
56182;BME280;51963;46.052;14.544;2023-12-20T05:14:52;97987.28;;;-2.54;100.00
56182;BME280;51963;46.052;14.544;2023-12-20T05:17:18;97977.59;;;-2.63;100.00
56182;BME280;51963;46.052;14.544;2023-12-20T05:19:45;97987.69;;;-2.71;100.00
56182;BME280;51963;46.052;14.544;2023-12-20T05:22:11;97984.88;;;-2.68;100.00
56182;BME280;51963;46.052;14.544;2023-12-20T05:24:37;97977.16;;;-2.57;100.00
56182;BME280;51963;46.052;14.544;2023-12-20T05:27:03;97969.84;;;-2.63;100.00
56182;BME280;51963;46.052;14.544;2023-12-20T05:29:28;97974.59;;;-2.45;100.00
56182;BME280;51963;46.052;14.544;2023-12-20T05:31:54;97974.75;;;-2.36;100.00
56182;BME280;51963;46.052;14.544;2023-12-20T05:34:20;97967.31;;;-2.40;100.00
56182;BME280;51963;46.052;14.544;2023-12-20T05:36:45;97973.81;;;-2.23;100.00
56182;BME280;51963;46.052;14.544;2023-12-20T05:39:11;97977.88;;;-2.43;100.00
56182;BME280;51963;46.052;14.544;2023-12-20T05:41:37;97962.13;;;-2.40;100.00
56182;BME280;51963;46.052;14.544;2023-12-20T05:44:02;97960.47;;;-2.41;100.00
56182;BME280;51963;46.052;14.544;2023-12-20T05:46:28;97965.19;;;-2.35;100.00
56182;BME280;51963;46.052;14.544;2023-12-20T05:48:54;97953.44;;;-2.16;100.00
56182;BME280;51963;46.052;14.544;2023-12-20T05:51:19;97948.91;;;-2.60;100.00
56182;BME280;51963;46.052;14.544;2023-12-20T05:53:45;97955.88;;;-2.60;100.00
56182;BME280;51963;46.052;14.544;2023-12-20T05:56:11;97957.09;;;-2.77;100.00
56182;BME280;51963;46.052;14.544;2023-12-20T05:58:38;97955.75;;;-2.47;100.00
56182;BME280;51963;46.052;14.544;2023-12-20T06:01:05;97956.09;;;-2.63;100.00
56182;BME280;51963;46.052;14.544;2023-12-20T06:03:31;97957.59;;;-2.72;100.00
56182;BME280;51963;46.052;14.544;2023-12-20T06:05:56;97955.59;;;-2.69;100.00
56182;BME280;51963;46.052;14.544;2023-12-20T06:08:22;97941.38;;;-2.63;100.00
56182;BME280;51963;46.052;14.544;2023-12-20T06:10:48;97960.97;;;-2.13;100.00
56182;BME280;51963;46.052;14.544;2023-12-20T06:13:14;97963.22;;;-2.20;100.00
56182;BME280;51963;46.052;14.544;2023-12-20T06:15:40;97958.25;;;-2.34;100.00
56182;BME280;51963;46.052;14.544;2023-12-20T06:18:06;97955.31;;;-2.30;100.00
56182;BME280;51963;46.052;14.544;2023-12-20T06:20:35;97962.63;;;-2.24;100.00
56182;BME280;51963;46.052;14.544;2023-12-20T06:23:01;97958.56;;;-2.51;100.00
56182;BME280;51963;46.052;14.544;2023-12-20T06:25:26;97956.63;;;-2.36;100.00
56182;BME280;51963;46.052;14.544;2023-12-20T06:27:52;97957.66;;;-2.27;100.00
56182;BME280;51963;46.052;14.544;2023-12-20T06:30:18;97951.78;;;-2.29;100.00
56182;BME280;51963;46.052;14.544;2023-12-20T06:32:44;97948.47;;;-2.31;100.00
56182;BME280;51963;46.052;14.544;2023-12-20T06:35:10;97953.41;;;-2.39;100.00
56182;BME280;51963;46.052;14.544;2023-12-20T06:37:35;97947.81;;;-2.69;100.00
56182;BME280;51963;46.052;14.544;2023-12-20T06:40:01;97952.47;;;-2.49;100.00
56182;BME280;51963;46.052;14.544;2023-12-20T06:42:27;97946.84;;;-2.32;100.00
56182;BME280;51963;46.052;14.544;2023-12-20T06:44:52;97948.25;;;-2.39;100.00
56182;BME280;51963;46.052;14.544;2023-12-20T06:47:18;97955.72;;;-2.59;100.00
56182;BME280;51963;46.052;14.544;2023-12-20T06:49:44;97957.69;;;-2.74;100.00
56182;BME280;51963;46.052;14.544;2023-12-20T06:52:09;97954.34;;;-2.87;100.00
56182;BME280;51963;46.052;14.544;2023-12-20T06:54:35;97957.81;;;-2.75;100.00
56182;BME280;51963;46.052;14.544;2023-12-20T06:57:01;97959.38;;;-2.97;100.00
56182;BME280;51963;46.052;14.544;2023-12-20T06:59:29;97962.88;;;-3.10;100.00
56182;BME280;51963;46.052;14.544;2023-12-20T07:01:54;97954.19;;;-3.08;100.00
56182;BME280;51963;46.052;14.544;2023-12-20T07:04:20;97964.28;;;-3.05;100.00
56182;BME280;51963;46.052;14.544;2023-12-20T07:06:48;97964.38;;;-2.83;100.00
56182;BME280;51963;46.052;14.544;2023-12-20T07:09:15;97968.63;;;-2.82;100.00
56182;BME280;51963;46.052;14.544;2023-12-20T07:11:41;97962.91;;;-2.62;100.00
56182;BME280;51963;46.052;14.544;2023-12-20T07:14:07;97955.19;;;-2.51;100.00
56182;BME280;51963;46.052;14.544;2023-12-20T07:16:32;97944.44;;;-2.58;100.00
56182;BME280;51963;46.052;14.544;2023-12-20T07:18:58;97959.44;;;-2.39;100.00
56182;BME280;51963;46.052;14.544;2023-12-20T07:21:24;97954.13;;;-2.37;100.00
56182;BME280;51963;46.052;14.544;2023-12-20T07:23:49;97957.88;;;-2.41;100.00
56182;BME280;51963;46.052;14.544;2023-12-20T07:26:15;97954.34;;;-2.40;100.00
56182;BME280;51963;46.052;14.544;2023-12-20T07:28:41;97947.28;;;-2.49;100.00
56182;BME280;51963;46.052;14.544;2023-12-20T07:31:06;97948.34;;;-2.52;100.00
56182;BME280;51963;46.052;14.544;2023-12-20T07:33:32;97947.78;;;-2.33;100.00
56182;BME280;51963;46.052;14.544;2023-12-20T07:35:59;97939.06;;;-2.32;100.00
56182;BME280;51963;46.052;14.544;2023-12-20T07:38:26;97948.38;;;-2.29;100.00
56182;BME280;51963;46.052;14.544;2023-12-20T07:40:51;97951.09;;;-2.08;100.00
56182;BME280;51963;46.052;14.544;2023-12-20T07:43:17;97951.31;;;-2.11;100.00
56182;BME280;51963;46.052;14.544;2023-12-20T07:45:43;97958.16;;;-2.10;100.00
56182;BME280;51963;46.052;14.544;2023-12-20T07:48:08;97971.47;;;-2.15;100.00
56182;BME280;51963;46.052;14.544;2023-12-20T07:50:34;97968.03;;;-1.81;100.00
56182;BME280;51963;46.052;14.544;2023-12-20T07:53:00;97947.75;;;-1.76;100.00
56182;BME280;51963;46.052;14.544;2023-12-20T07:55:27;97949.16;;;-1.60;100.00
56182;BME280;51963;46.052;14.544;2023-12-20T07:57:52;97943.00;;;-1.48;100.00
56182;BME280;51963;46.052;14.544;2023-12-20T08:00:18;97946.78;;;-1.52;100.00
56182;BME280;51963;46.052;14.544;2023-12-20T08:02:44;97936.66;;;-1.55;100.00
56182;BME280;51963;46.052;14.544;2023-12-20T08:05:10;97936.41;;;-1.52;100.00
56182;BME280;51963;46.052;14.544;2023-12-20T08:07:36;97952.56;;;-1.49;100.00
56182;BME280;51963;46.052;14.544;2023-12-20T08:10:02;97945.03;;;-1.52;100.00
56182;BME280;51963;46.052;14.544;2023-12-20T08:12:27;97966.97;;;-1.67;100.00
56182;BME280;51963;46.052;14.544;2023-12-20T08:14:54;97951.78;;;-1.72;100.00
56182;BME280;51963;46.052;14.544;2023-12-20T08:17:19;97954.78;;;-1.44;100.00
56182;BME280;51963;46.052;14.544;2023-12-20T08:19:45;97958.50;;;-1.25;100.00
56182;BME280;51963;46.052;14.544;2023-12-20T08:22:11;97961.25;;;-1.06;100.00
56182;BME280;51963;46.052;14.544;2023-12-20T08:24:37;97963.63;;;-1.02;100.00
56182;BME280;51963;46.052;14.544;2023-12-20T08:27:04;97974.50;;;-1.09;100.00
56182;BME280;51963;46.052;14.544;2023-12-20T08:29:29;97978.03;;;-1.10;100.00
56182;BME280;51963;46.052;14.544;2023-12-20T08:31:55;97982.06;;;-1.17;100.00
56182;BME280;51963;46.052;14.544;2023-12-20T08:34:22;97973.00;;;-1.23;100.00
56182;BME280;51963;46.052;14.544;2023-12-20T08:36:47;97954.56;;;-1.08;100.00
56182;BME280;51963;46.052;14.544;2023-12-20T08:39:13;97966.91;;;-1.00;100.00
56182;BME280;51963;46.052;14.544;2023-12-20T08:41:38;97969.63;;;-1.02;100.00
56182;BME280;51963;46.052;14.544;2023-12-20T08:44:04;97947.38;;;-1.16;100.00
56182;BME280;51963;46.052;14.544;2023-12-20T08:46:30;97945.31;;;-1.34;100.00
56182;BME280;51963;46.052;14.544;2023-12-20T08:48:56;97961.16;;;-1.04;100.00
56182;BME280;51963;46.052;14.544;2023-12-20T08:51:21;97961.00;;;-1.02;100.00
56182;BME280;51963;46.052;14.544;2023-12-20T08:53:49;97975.53;;;-1.00;100.00
56182;BME280;51963;46.052;14.544;2023-12-20T08:56:15;97978.44;;;-0.93;100.00
56182;BME280;51963;46.052;14.544;2023-12-20T08:58:41;97982.47;;;-0.68;100.00
56182;BME280;51963;46.052;14.544;2023-12-20T09:01:07;97967.31;;;-0.84;100.00
56182;BME280;51963;46.052;14.544;2023-12-20T09:03:33;97959.28;;;-0.60;100.00
56182;BME280;51963;46.052;14.544;2023-12-20T09:05:58;97976.06;;;-0.42;100.00
56182;BME280;51963;46.052;14.544;2023-12-20T09:08:24;97974.72;;;-0.16;100.00
56182;BME280;51963;46.052;14.544;2023-12-20T09:10:50;97976.09;;;-0.11;100.00
56182;BME280;51963;46.052;14.544;2023-12-20T09:13:16;97982.56;;;-0.06;100.00
56182;BME280;51963;46.052;14.544;2023-12-20T09:15:41;97980.78;;;-0.05;100.00
56182;BME280;51963;46.052;14.544;2023-12-20T09:18:07;97973.75;;;-0.15;100.00
56182;BME280;51963;46.052;14.544;2023-12-20T09:20:33;97972.13;;;0.16;100.00
56182;BME280;51963;46.052;14.544;2023-12-20T09:22:59;97969.28;;;0.19;100.00
56182;BME280;51963;46.052;14.544;2023-12-20T09:25:25;97970.59;;;0.03;100.00
56182;BME280;51963;46.052;14.544;2023-12-20T09:27:52;97961.00;;;0.04;100.00
56182;BME280;51963;46.052;14.544;2023-12-20T09:30:18;97959.34;;;0.03;100.00
56182;BME280;51963;46.052;14.544;2023-12-20T09:32:45;97960.78;;;0.17;100.00
56182;BME280;51963;46.052;14.544;2023-12-20T09:35:11;97963.13;;;0.20;100.00
56182;BME280;51963;46.052;14.544;2023-12-20T09:37:36;97963.44;;;0.46;100.00
56182;BME280;51963;46.052;14.544;2023-12-20T09:40:03;97962.28;;;0.80;100.00
56182;BME280;51963;46.052;14.544;2023-12-20T09:42:42;97957.34;;;0.67;100.00
56182;BME280;51963;46.052;14.544;2023-12-20T09:45:13;97956.28;;;0.89;100.00
56182;BME280;51963;46.052;14.544;2023-12-20T09:47:41;97937.38;;;1.07;100.00
56182;BME280;51963;46.052;14.544;2023-12-20T09:50:08;97942.41;;;0.88;100.00
56182;BME280;51963;46.052;14.544;2023-12-20T09:52:36;97940.78;;;0.78;100.00
56182;BME280;51963;46.052;14.544;2023-12-20T09:55:04;97923.56;;;1.64;100.00
56182;BME280;51963;46.052;14.544;2023-12-20T09:57:32;97929.44;;;2.03;100.00
56182;BME280;51963;46.052;14.544;2023-12-20T09:59:58;97929.06;;;2.26;100.00
56182;BME280;51963;46.052;14.544;2023-12-20T10:02:25;97932.59;;;2.35;100.00
56182;BME280;51963;46.052;14.544;2023-12-20T10:04:55;97926.47;;;2.90;100.00
56182;BME280;51963;46.052;14.544;2023-12-20T10:07:21;97934.44;;;2.89;100.00
56182;BME280;51963;46.052;14.544;2023-12-20T10:09:48;97919.47;;;2.73;100.00
56182;BME280;51963;46.052;14.544;2023-12-20T10:12:14;97937.28;;;2.31;100.00
56182;BME280;51963;46.052;14.544;2023-12-20T10:14:39;97928.63;;;2.59;100.00
56182;BME280;51963;46.052;14.544;2023-12-20T10:17:05;97935.78;;;2.57;100.00
56182;BME280;51963;46.052;14.544;2023-12-20T10:19:32;97919.75;;;2.88;100.00
56182;BME280;51963;46.052;14.544;2023-12-20T10:22:05;97933.63;;;3.06;100.00
56182;BME280;51963;46.052;14.544;2023-12-20T10:24:30;97926.22;;;3.20;100.00
56182;BME280;51963;46.052;14.544;2023-12-20T10:27:07;97935.53;;;3.67;100.00
56182;BME280;51963;46.052;14.544;2023-12-20T10:29:37;97920.25;;;5.57;100.00
56182;BME280;51963;46.052;14.544;2023-12-20T10:32:22;97924.19;;;6.26;100.00
56182;BME280;51963;46.052;14.544;2023-12-20T10:34:53;97924.91;;;8.50;77.33
56182;BME280;51963;46.052;14.544;2023-12-20T10:37:19;97911.06;;;9.92;69.69
56182;BME280;51963;46.052;14.544;2023-12-20T10:39:50;97912.28;;;8.30;72.60
56182;BME280;51963;46.052;14.544;2023-12-20T10:42:17;97898.75;;;6.58;81.03
56182;BME280;51963;46.052;14.544;2023-12-20T10:44:43;97904.88;;;5.21;96.68
56182;BME280;51963;46.052;14.544;2023-12-20T10:47:09;97906.53;;;6.75;95.30
56182;BME280;51963;46.052;14.544;2023-12-20T10:49:37;97912.94;;;8.17;77.23
56182;BME280;51963;46.052;14.544;2023-12-20T10:52:05;97914.63;;;10.12;66.35
56182;BME280;51963;46.052;14.544;2023-12-20T10:54:31;97915.97;;;10.92;62.54
56182;BME280;51963;46.052;14.544;2023-12-20T10:56:57;97906.50;;;10.56;61.82
56182;BME280;51963;46.052;14.544;2023-12-20T10:59:24;97907.22;;;8.14;70.17
56182;BME280;51963;46.052;14.544;2023-12-20T11:01:50;97900.78;;;6.48;85.72
56182;BME280;51963;46.052;14.544;2023-12-20T11:04:23;97890.94;;;4.96;100.00
56182;BME280;51963;46.052;14.544;2023-12-20T11:07:04;97888.28;;;4.54;100.00
56182;BME280;51963;46.052;14.544;2023-12-20T11:09:37;97900.50;;;3.86;100.00
56182;BME280;51963;46.052;14.544;2023-12-20T11:12:13;97879.09;;;3.56;100.00
56182;BME280;51963;46.052;14.544;2023-12-20T11:17:13;97895.41;;;3.50;100.00
56182;BME280;51963;46.052;14.544;2023-12-20T11:22:30;97892.56;;;4.04;100.00
56182;BME280;51963;46.052;14.544;2023-12-20T11:27:30;97873.91;;;4.59;100.00
56182;BME280;51963;46.052;14.544;2023-12-20T11:29:58;97885.22;;;4.76;100.00
56182;BME280;51963;46.052;14.544;2023-12-20T11:34:56;97862.91;;;6.66;100.00
56182;BME280;51963;46.052;14.544;2023-12-20T11:37:32;97856.75;;;7.50;92.41
56182;BME280;51963;46.052;14.544;2023-12-20T11:40:06;97851.81;;;7.17;95.42
56182;BME280;51963;46.052;14.544;2023-12-20T11:42:42;97849.97;;;6.33;100.00
56182;BME280;51963;46.052;14.544;2023-12-20T11:45:14;97853.94;;;5.88;100.00
56182;BME280;51963;46.052;14.544;2023-12-20T11:47:43;97848.75;;;6.20;100.00
56182;BME280;51963;46.052;14.544;2023-12-20T11:50:09;97844.28;;;6.52;100.00
56182;BME280;51963;46.052;14.544;2023-12-20T11:52:35;97841.56;;;6.37;100.00
56182;BME280;51963;46.052;14.544;2023-12-20T11:55:01;97831.22;;;6.44;100.00
56182;BME280;51963;46.052;14.544;2023-12-20T11:57:27;97843.66;;;6.19;100.00
56182;BME280;51963;46.052;14.544;2023-12-20T11:59:52;97847.63;;;5.66;100.00
56182;BME280;51963;46.052;14.544;2023-12-20T12:02:18;97843.38;;;5.65;100.00
56182;BME280;51963;46.052;14.544;2023-12-20T12:04:44;97834.91;;;5.47;100.00
56182;BME280;51963;46.052;14.544;2023-12-20T12:07:10;97812.03;;;4.99;100.00
56182;BME280;51963;46.052;14.544;2023-12-20T12:09:35;97825.31;;;4.97;100.00
56182;BME280;51963;46.052;14.544;2023-12-20T12:12:01;97825.75;;;5.34;100.00
56182;BME280;51963;46.052;14.544;2023-12-20T12:14:27;97826.22;;;5.38;100.00
56182;BME280;51963;46.052;14.544;2023-12-20T12:16:53;97830.28;;;5.57;100.00
56182;BME280;51963;46.052;14.544;2023-12-20T12:19:23;97815.28;;;5.34;100.00
56182;BME280;51963;46.052;14.544;2023-12-20T12:22:05;97825.03;;;5.57;100.00
56182;BME280;51963;46.052;14.544;2023-12-20T12:24:36;97833.38;;;6.09;100.00
56182;BME280;51963;46.052;14.544;2023-12-20T12:27:03;97840.38;;;6.16;100.00
56182;BME280;51963;46.052;14.544;2023-12-20T12:29:29;97833.25;;;6.80;100.00
56182;BME280;51963;46.052;14.544;2023-12-20T12:31:55;97818.53;;;6.71;100.00
56182;BME280;51963;46.052;14.544;2023-12-20T12:34:21;97824.06;;;6.53;100.00
56182;BME280;51963;46.052;14.544;2023-12-20T12:36:48;97826.31;;;6.41;100.00
56182;BME280;51963;46.052;14.544;2023-12-20T12:39:14;97823.69;;;6.09;100.00
56182;BME280;51963;46.052;14.544;2023-12-20T12:41:41;97813.09;;;5.94;100.00
56182;BME280;51963;46.052;14.544;2023-12-20T12:44:06;97810.88;;;5.75;100.00
56182;BME280;51963;46.052;14.544;2023-12-20T12:46:32;97813.47;;;5.26;100.00
56182;BME280;51963;46.052;14.544;2023-12-20T12:48:58;97807.75;;;5.06;100.00